sensor_id;sensor_type;location;lat;lon;timestamp;pressure;altitude;pressure_sealevel;temperature;humidity
63088;BME280;49173;43.164;27.786;2023-08-12T00:00:22;100838.44;;;22.04;65.29
63088;BME280;49173;43.164;27.786;2023-08-12T00:02:48;100839.75;;;22.00;65.13
63088;BME280;49173;43.164;27.786;2023-08-12T00:05:14;100823.47;;;21.99;64.99
63088;BME280;49173;43.164;27.786;2023-08-12T00:07:40;100830.81;;;21.98;64.85
63088;BME280;49173;43.164;27.786;2023-08-12T00:10:08;100826.19;;;21.99;64.79
63088;BME280;49173;43.164;27.786;2023-08-12T00:12:34;100830.09;;;21.96;64.75
63088;BME280;49173;43.164;27.786;2023-08-12T00:15:01;100824.78;;;21.94;64.66
63088;BME280;49173;43.164;27.786;2023-08-12T00:17:28;100817.59;;;21.93;64.40
63088;BME280;49173;43.164;27.786;2023-08-12T00:19:55;100825.06;;;21.91;63.98
63088;BME280;49173;43.164;27.786;2023-08-12T00:22:22;100818.75;;;21.91;63.49
63088;BME280;49173;43.164;27.786;2023-08-12T00:24:47;100824.34;;;21.89;63.41
63088;BME280;49173;43.164;27.786;2023-08-12T00:27:13;100820.50;;;21.92;63.13
63088;BME280;49173;43.164;27.786;2023-08-12T00:29:39;100821.78;;;21.88;62.92
63088;BME280;49173;43.164;27.786;2023-08-12T00:32:05;100825.69;;;21.85;63.26
63088;BME280;49173;43.164;27.786;2023-08-12T00:34:32;100828.41;;;21.85;63.63
63088;BME280;49173;43.164;27.786;2023-08-12T00:36:57;100820.06;;;21.87;63.29
63088;BME280;49173;43.164;27.786;2023-08-12T00:39:23;100819.91;;;21.88;62.83
63088;BME280;49173;43.164;27.786;2023-08-12T00:41:49;100821.63;;;21.89;62.65
63088;BME280;49173;43.164;27.786;2023-08-12T00:44:14;100825.97;;;21.92;62.01
63088;BME280;49173;43.164;27.786;2023-08-12T00:46:41;100824.50;;;21.88;61.71
63088;BME280;49173;43.164;27.786;2023-08-12T00:49:08;100815.16;;;21.90;61.53
63088;BME280;49173;43.164;27.786;2023-08-12T00:51:34;100818.47;;;21.94;61.19
63088;BME280;49173;43.164;27.786;2023-08-12T00:54:04;100817.75;;;21.92;61.50
63088;BME280;49173;43.164;27.786;2023-08-12T00:56:31;100820.50;;;21.92;61.32
63088;BME280;49173;43.164;27.786;2023-08-12T00:59:00;100824.34;;;21.89;61.19
63088;BME280;49173;43.164;27.786;2023-08-12T01:01:26;100824.34;;;21.89;61.02
63088;BME280;49173;43.164;27.786;2023-08-12T01:03:52;100826.53;;;21.86;61.05
63088;BME280;49173;43.164;27.786;2023-08-12T01:06:18;100811.28;;;21.83;61.25
63088;BME280;49173;43.164;27.786;2023-08-12T01:08:44;100824.38;;;21.80;61.69
63088;BME280;49173;43.164;27.786;2023-08-12T01:13:55;100814.75;;;21.76;61.73
63088;BME280;49173;43.164;27.786;2023-08-12T01:16:25;100827.41;;;21.67;61.80
63088;BME280;49173;43.164;27.786;2023-08-12T01:18:53;100823.81;;;21.66;61.72
63088;BME280;49173;43.164;27.786;2023-08-12T01:21:21;100814.75;;;21.66;61.81
63088;BME280;49173;43.164;27.786;2023-08-12T01:23:49;100815.03;;;21.63;61.74
63088;BME280;49173;43.164;27.786;2023-08-12T01:26:16;100818.22;;;21.58;61.58
63088;BME280;49173;43.164;27.786;2023-08-12T01:28:41;100822.94;;;21.56;61.59
63088;BME280;49173;43.164;27.786;2023-08-12T01:31:15;100817.63;;;21.55;61.45
63088;BME280;49173;43.164;27.786;2023-08-12T01:34:07;100824.97;;;21.54;61.25
63088;BME280;49173;43.164;27.786;2023-08-12T01:36:37;100820.19;;;21.56;61.09
63088;BME280;49173;43.164;27.786;2023-08-12T01:39:06;100825.66;;;21.56;60.97
63088;BME280;49173;43.164;27.786;2023-08-12T01:41:34;100830.72;;;21.51;61.16
63088;BME280;49173;43.164;27.786;2023-08-12T01:44:02;100824.81;;;21.46;60.95
63088;BME280;49173;43.164;27.786;2023-08-12T01:46:28;100830.84;;;21.40;61.05
63088;BME280;49173;43.164;27.786;2023-08-12T01:48:54;100829.84;;;21.41;61.33
63088;BME280;49173;43.164;27.786;2023-08-12T01:51:19;100837.47;;;21.37;61.39
63088;BME280;49173;43.164;27.786;2023-08-12T01:53:45;100838.59;;;21.35;61.78
63088;BME280;49173;43.164;27.786;2023-08-12T01:56:11;100844.06;;;21.35;61.21
63088;BME280;49173;43.164;27.786;2023-08-12T01:58:36;100835.16;;;21.33;61.31
63088;BME280;49173;43.164;27.786;2023-08-12T02:01:02;100843.34;;;21.33;61.09
63088;BME280;49173;43.164;27.786;2023-08-12T02:03:28;100840.06;;;21.29;61.17
63088;BME280;49173;43.164;27.786;2023-08-12T02:05:53;100835.97;;;21.24;61.19
63088;BME280;49173;43.164;27.786;2023-08-12T02:08:19;100829.06;;;21.20;61.31
63088;BME280;49173;43.164;27.786;2023-08-12T02:10:45;100833.81;;;21.18;61.46
63088;BME280;49173;43.164;27.786;2023-08-12T02:13:10;100830.78;;;21.11;61.27
63088;BME280;49173;43.164;27.786;2023-08-12T02:15:36;100840.84;;;21.10;61.57
63088;BME280;49173;43.164;27.786;2023-08-12T02:18:02;100840.69;;;21.12;61.27
63088;BME280;49173;43.164;27.786;2023-08-12T02:20:28;100834.66;;;21.08;61.43
63088;BME280;49173;43.164;27.786;2023-08-12T02:22:54;100837.41;;;21.08;61.13
63088;BME280;49173;43.164;27.786;2023-08-12T02:25:20;100846.28;;;21.10;61.34
63088;BME280;49173;43.164;27.786;2023-08-12T02:27:45;100837.66;;;21.05;61.08
63088;BME280;49173;43.164;27.786;2023-08-12T02:30:11;100847.31;;;21.09;60.98
63088;BME280;49173;43.164;27.786;2023-08-12T02:32:40;100841.69;;;21.11;61.18
63088;BME280;49173;43.164;27.786;2023-08-12T02:35:09;100842.84;;;21.08;61.12
63088;BME280;49173;43.164;27.786;2023-08-12T02:37:36;100848.16;;;21.10;61.12
63088;BME280;49173;43.164;27.786;2023-08-12T02:40:03;100849.75;;;21.12;61.21
63088;BME280;49173;43.164;27.786;2023-08-12T02:42:30;100845.03;;;21.15;61.46
63088;BME280;49173;43.164;27.786;2023-08-12T02:44:56;100850.63;;;21.23;61.25
63088;BME280;49173;43.164;27.786;2023-08-12T02:47:21;100852.84;;;21.29;61.34
63088;BME280;49173;43.164;27.786;2023-08-12T02:49:47;100852.69;;;21.30;61.37
63088;BME280;49173;43.164;27.786;2023-08-12T02:52:13;100851.84;;;21.30;61.04
63088;BME280;49173;43.164;27.786;2023-08-12T02:54:39;100849.81;;;21.32;61.23
63088;BME280;49173;43.164;27.786;2023-08-12T02:57:05;100852.34;;;21.24;61.24
63088;BME280;49173;43.164;27.786;2023-08-12T02:59:31;100850.91;;;21.20;61.18
63088;BME280;49173;43.164;27.786;2023-08-12T03:01:56;100849.78;;;21.22;61.65
63088;BME280;49173;43.164;27.786;2023-08-12T03:04:22;100850.50;;;21.24;61.51
63088;BME280;49173;43.164;27.786;2023-08-12T03:06:48;100851.66;;;21.22;61.75
63088;BME280;49173;43.164;27.786;2023-08-12T03:09:14;100852.63;;;21.21;61.47
63088;BME280;49173;43.164;27.786;2023-08-12T03:11:39;100844.72;;;21.18;61.51
63088;BME280;49173;43.164;27.786;2023-08-12T03:14:05;100844.03;;;21.16;61.68
63088;BME280;49173;43.164;27.786;2023-08-12T03:18:57;100847.88;;;21.13;61.76
63088;BME280;49173;43.164;27.786;2023-08-12T03:21:22;100842.84;;;21.08;61.78
63088;BME280;49173;43.164;27.786;2023-08-12T03:23:48;100842.09;;;21.06;61.88
63088;BME280;49173;43.164;27.786;2023-08-12T03:26:14;100854.03;;;21.05;61.99
63088;BME280;49173;43.164;27.786;2023-08-12T03:28:40;100850.28;;;21.06;62.35
63088;BME280;49173;43.164;27.786;2023-08-12T03:31:06;100855.03;;;21.04;62.48
63088;BME280;49173;43.164;27.786;2023-08-12T03:33:31;100857.78;;;21.04;62.21
63088;BME280;49173;43.164;27.786;2023-08-12T03:35:59;100857.78;;;21.04;62.73
63088;BME280;49173;43.164;27.786;2023-08-12T03:38:25;100856.50;;;21.08;62.77
63088;BME280;49173;43.164;27.786;2023-08-12T03:40:51;100865.69;;;21.07;62.87
63088;BME280;49173;43.164;27.786;2023-08-12T03:43:16;100864.41;;;21.11;62.67
63088;BME280;49173;43.164;27.786;2023-08-12T03:45:43;100867.44;;;21.18;62.83
63088;BME280;49173;43.164;27.786;2023-08-12T03:48:10;100864.41;;;21.21;62.63
63088;BME280;49173;43.164;27.786;2023-08-12T03:50:37;100865.56;;;21.19;62.65
63088;BME280;49173;43.164;27.786;2023-08-12T03:53:03;100867.84;;;21.13;63.00
63088;BME280;49173;43.164;27.786;2023-08-12T03:55:33;100868.59;;;21.16;62.49
63088;BME280;49173;43.164;27.786;2023-08-12T03:57:59;100871.88;;;21.19;62.31
63088;BME280;49173;43.164;27.786;2023-08-12T04:00:26;100867.03;;;21.23;62.31
63088;BME280;49173;43.164;27.786;2023-08-12T04:02:51;100868.75;;;21.24;62.35
63088;BME280;49173;43.164;27.786;2023-08-12T04:05:17;100879.69;;;21.33;62.26
63088;BME280;49173;43.164;27.786;2023-08-12T04:07:43;100874.97;;;21.35;61.72
63088;BME280;49173;43.164;27.786;2023-08-12T04:10:09;100877.00;;;21.43;61.63
63088;BME280;49173;43.164;27.786;2023-08-12T04:12:35;100879.13;;;21.49;61.24
63088;BME280;49173;43.164;27.786;2023-08-12T04:15:01;100873.41;;;21.52;61.69
63088;BME280;49173;43.164;27.786;2023-08-12T04:17:30;100878.00;;;21.61;61.85
63088;BME280;49173;43.164;27.786;2023-08-12T04:19:55;100876.28;;;21.70;61.75
63088;BME280;49173;43.164;27.786;2023-08-12T04:22:21;100885.78;;;21.85;61.24
63088;BME280;49173;43.164;27.786;2023-08-12T04:24:47;100891.69;;;22.00;60.61
63088;BME280;49173;43.164;27.786;2023-08-12T04:27:13;100890.69;;;22.11;60.84
63088;BME280;49173;43.164;27.786;2023-08-12T04:29:38;100892.97;;;22.25;60.52
63088;BME280;49173;43.164;27.786;2023-08-12T04:32:04;100904.75;;;22.35;60.86
63088;BME280;49173;43.164;27.786;2023-08-12T04:34:30;100903.28;;;22.51;60.61
63088;BME280;49173;43.164;27.786;2023-08-12T04:36:56;100893.72;;;22.64;60.48
63088;BME280;49173;43.164;27.786;2023-08-12T04:39:31;100909.25;;;22.73;59.27
63088;BME280;49173;43.164;27.786;2023-08-12T04:42:08;100899.25;;;22.82;58.55
63088;BME280;49173;43.164;27.786;2023-08-12T04:44:37;100905.03;;;22.89;58.49
63088;BME280;49173;43.164;27.786;2023-08-12T04:47:04;100901.69;;;22.95;58.33
63088;BME280;49173;43.164;27.786;2023-08-12T04:49:31;100904.84;;;23.00;58.46
63088;BME280;49173;43.164;27.786;2023-08-12T04:52:00;100908.00;;;23.05;57.64
63088;BME280;49173;43.164;27.786;2023-08-12T04:54:27;100895.00;;;23.07;57.80
63088;BME280;49173;43.164;27.786;2023-08-12T04:56:56;100895.72;;;23.09;57.45
63088;BME280;49173;43.164;27.786;2023-08-12T04:59:23;100906.06;;;23.15;57.34
63088;BME280;49173;43.164;27.786;2023-08-12T05:01:49;100907.63;;;23.18;57.24
63088;BME280;49173;43.164;27.786;2023-08-12T05:04:18;100903.41;;;23.23;57.00
63088;BME280;49173;43.164;27.786;2023-08-12T05:06:51;100899.38;;;23.27;57.06
63088;BME280;49173;43.164;27.786;2023-08-12T05:09:18;100900.47;;;23.35;56.51
63088;BME280;49173;43.164;27.786;2023-08-12T05:11:45;100906.91;;;23.43;56.13
63088;BME280;49173;43.164;27.786;2023-08-12T05:14:11;100907.47;;;23.47;56.10
63088;BME280;49173;43.164;27.786;2023-08-12T05:16:38;100902.06;;;23.55;55.50
63088;BME280;49173;43.164;27.786;2023-08-12T05:19:05;100898.44;;;23.64;55.74
63088;BME280;49173;43.164;27.786;2023-08-12T05:21:32;100906.44;;;23.75;55.85
63088;BME280;49173;43.164;27.786;2023-08-12T05:23:58;100902.03;;;23.82;55.31
63088;BME280;49173;43.164;27.786;2023-08-12T05:26:25;100903.44;;;23.87;54.98
63088;BME280;49173;43.164;27.786;2023-08-12T05:28:51;100895.91;;;23.89;54.92
63088;BME280;49173;43.164;27.786;2023-08-12T05:31:18;100896.13;;;23.95;54.29
63088;BME280;49173;43.164;27.786;2023-08-12T05:33:44;100899.44;;;23.99;53.94
63088;BME280;49173;43.164;27.786;2023-08-12T05:36:12;100900.53;;;24.06;54.04
63088;BME280;49173;43.164;27.786;2023-08-12T05:38:39;100894.25;;;24.14;54.54
63088;BME280;49173;43.164;27.786;2023-08-12T05:41:09;100897.16;;;24.12;53.94
63088;BME280;49173;43.164;27.786;2023-08-12T05:43:35;100902.69;;;24.20;54.11
63088;BME280;49173;43.164;27.786;2023-08-12T05:46:02;100899.31;;;24.26;53.80
63088;BME280;49173;43.164;27.786;2023-08-12T05:48:31;100898.69;;;24.32;53.82
63088;BME280;49173;43.164;27.786;2023-08-12T05:50:57;100898.38;;;24.35;53.24
63088;BME280;49173;43.164;27.786;2023-08-12T05:53:24;100903.00;;;24.35;53.23
63088;BME280;49173;43.164;27.786;2023-08-12T05:55:53;100899.81;;;24.40;52.88
63088;BME280;49173;43.164;27.786;2023-08-12T05:58:25;100897.97;;;24.48;53.23
63088;BME280;49173;43.164;27.786;2023-08-12T06:00:52;100899.72;;;24.57;53.31
63088;BME280;49173;43.164;27.786;2023-08-12T06:03:18;100900.31;;;24.69;53.54
63088;BME280;49173;43.164;27.786;2023-08-12T06:05:47;100896.13;;;24.83;53.45
63088;BME280;49173;43.164;27.786;2023-08-12T06:08:17;100896.16;;;24.91;53.35
63088;BME280;49173;43.164;27.786;2023-08-12T06:10:47;100905.44;;;24.98;52.58
63088;BME280;49173;43.164;27.786;2023-08-12T06:13:14;100901.06;;;25.05;52.38
63088;BME280;49173;43.164;27.786;2023-08-12T06:15:43;100896.44;;;25.14;52.21
63088;BME280;49173;43.164;27.786;2023-08-12T06:18:09;100903.00;;;25.21;52.07
63088;BME280;49173;43.164;27.786;2023-08-12T06:20:38;100889.63;;;25.26;51.05
63088;BME280;49173;43.164;27.786;2023-08-12T06:23:07;100890.84;;;25.32;51.00
63088;BME280;49173;43.164;27.786;2023-08-12T06:25:37;100887.59;;;25.36;50.56
63088;BME280;49173;43.164;27.786;2023-08-12T06:28:05;100887.63;;;25.44;50.87
63088;BME280;49173;43.164;27.786;2023-08-12T06:30:31;100892.97;;;25.54;51.32
63088;BME280;49173;43.164;27.786;2023-08-12T06:32:58;100886.44;;;25.63;51.21
63088;BME280;49173;43.164;27.786;2023-08-12T06:35:24;100891.66;;;25.74;50.08
63088;BME280;49173;43.164;27.786;2023-08-12T06:37:56;100897.16;;;25.83;49.47
63088;BME280;49173;43.164;27.786;2023-08-12T06:40:27;100885.31;;;25.90;49.26
63088;BME280;49173;43.164;27.786;2023-08-12T06:42:55;100887.19;;;25.98;49.30
63088;BME280;49173;43.164;27.786;2023-08-12T06:45:21;100881.53;;;26.08;50.07
63088;BME280;49173;43.164;27.786;2023-08-12T06:47:51;100888.56;;;26.18;49.42
63088;BME280;49173;43.164;27.786;2023-08-12T06:50:17;100891.13;;;26.28;49.13
63088;BME280;49173;43.164;27.786;2023-08-12T06:52:44;100890.81;;;26.39;48.62
63088;BME280;49173;43.164;27.786;2023-08-12T06:55:10;100887.19;;;26.47;48.67
63088;BME280;49173;43.164;27.786;2023-08-12T06:57:40;100884.56;;;26.62;48.32
63088;BME280;49173;43.164;27.786;2023-08-12T07:00:10;100885.25;;;26.72;48.00
63088;BME280;49173;43.164;27.786;2023-08-12T07:02:36;100888.66;;;26.82;48.13
63088;BME280;49173;43.164;27.786;2023-08-12T07:05:12;100881.53;;;26.96;47.96
63088;BME280;49173;43.164;27.786;2023-08-12T07:07:38;100881.19;;;27.07;47.37
63088;BME280;49173;43.164;27.786;2023-08-12T07:10:05;100873.56;;;27.17;47.82
63088;BME280;49173;43.164;27.786;2023-08-12T07:12:35;100875.06;;;27.28;47.64
63088;BME280;49173;43.164;27.786;2023-08-12T07:15:08;100869.13;;;27.39;46.73
63088;BME280;49173;43.164;27.786;2023-08-12T07:17:37;100869.78;;;27.41;45.62
63088;BME280;49173;43.164;27.786;2023-08-12T07:20:05;100869.44;;;27.44;45.12
63088;BME280;49173;43.164;27.786;2023-08-12T07:22:35;100872.53;;;27.49;45.56
63088;BME280;49173;43.164;27.786;2023-08-12T07:25:14;100867.81;;;27.58;45.64
63088;BME280;49173;43.164;27.786;2023-08-12T07:27:43;100864.13;;;27.65;45.68
63088;BME280;49173;43.164;27.786;2023-08-12T07:30:13;100869.25;;;27.77;46.22
63088;BME280;49173;43.164;27.786;2023-08-12T07:32:39;100862.25;;;27.89;45.91
63088;BME280;49173;43.164;27.786;2023-08-12T07:35:09;100868.09;;;27.94;45.03
63088;BME280;49173;43.164;27.786;2023-08-12T07:37:35;100873.91;;;27.99;44.89
63088;BME280;49173;43.164;27.786;2023-08-12T07:40:04;100862.13;;;28.05;44.47
63088;BME280;49173;43.164;27.786;2023-08-12T07:42:31;100862.59;;;28.09;44.57
63088;BME280;49173;43.164;27.786;2023-08-12T07:45:02;100854.63;;;28.14;44.74
63088;BME280;49173;43.164;27.786;2023-08-12T07:47:30;100859.75;;;28.17;44.21
63088;BME280;49173;43.164;27.786;2023-08-12T07:49:56;100863.03;;;28.21;42.73
63088;BME280;49173;43.164;27.786;2023-08-12T07:52:30;100855.00;;;28.11;41.58
63088;BME280;49173;43.164;27.786;2023-08-12T07:54:56;100853.78;;;28.13;41.66
63088;BME280;49173;43.164;27.786;2023-08-12T07:57:23;100844.66;;;28.13;41.11
63088;BME280;49173;43.164;27.786;2023-08-12T07:59:51;100842.34;;;28.16;41.48
63088;BME280;49173;43.164;27.786;2023-08-12T08:02:17;100849.22;;;28.21;42.07
63088;BME280;49173;43.164;27.786;2023-08-12T08:04:46;100854.84;;;28.27;41.25
63088;BME280;49173;43.164;27.786;2023-08-12T08:07:16;100850.53;;;28.25;39.38
63088;BME280;49173;43.164;27.786;2023-08-12T08:09:45;100850.81;;;28.15;39.70
63088;BME280;49173;43.164;27.786;2023-08-12T08:12:12;100842.34;;;28.16;39.26
63088;BME280;49173;43.164;27.786;2023-08-12T08:14:40;100847.78;;;28.25;39.61
63088;BME280;49173;43.164;27.786;2023-08-12T08:17:06;100845.03;;;28.25;39.18
63088;BME280;49173;43.164;27.786;2023-08-12T08:19:37;100848.72;;;28.17;39.08
63088;BME280;49173;43.164;27.786;2023-08-12T08:22:03;100840.53;;;28.09;39.70
63088;BME280;49173;43.164;27.786;2023-08-12T08:24:32;100835.59;;;28.19;39.51
63088;BME280;49173;43.164;27.786;2023-08-12T08:26:59;100846.06;;;28.24;40.01
63088;BME280;49173;43.164;27.786;2023-08-12T08:29:26;100837.59;;;28.25;38.31
63088;BME280;49173;43.164;27.786;2023-08-12T08:31:55;100843.13;;;28.25;38.62
63088;BME280;49173;43.164;27.786;2023-08-12T08:34:25;100831.16;;;28.33;38.32
63088;BME280;49173;43.164;27.786;2023-08-12T08:36:51;100834.81;;;28.33;38.56
63088;BME280;49173;43.164;27.786;2023-08-12T08:39:19;100835.28;;;28.37;38.98
63088;BME280;49173;43.164;27.786;2023-08-12T08:41:50;100833.88;;;28.41;39.00
63088;BME280;49173;43.164;27.786;2023-08-12T08:44:28;100822.63;;;28.42;38.49
63088;BME280;49173;43.164;27.786;2023-08-12T08:46:55;100827.41;;;28.49;38.40
63088;BME280;49173;43.164;27.786;2023-08-12T08:49:33;100825.69;;;28.48;38.32
63088;BME280;49173;43.164;27.786;2023-08-12T08:52:01;100822.72;;;28.49;37.93
63088;BME280;49173;43.164;27.786;2023-08-12T08:54:29;100818.72;;;28.52;38.37
63088;BME280;49173;43.164;27.786;2023-08-12T08:56:58;100824.81;;;28.62;38.86
63088;BME280;49173;43.164;27.786;2023-08-12T08:59:26;100820.25;;;28.69;38.65
63088;BME280;49173;43.164;27.786;2023-08-12T09:01:56;100812.41;;;28.72;38.14
63088;BME280;49173;43.164;27.786;2023-08-12T09:04:25;100808.25;;;28.62;37.59
63088;BME280;49173;43.164;27.786;2023-08-12T09:06:52;100802.72;;;28.62;38.33
63088;BME280;49173;43.164;27.786;2023-08-12T09:09:23;100810.91;;;28.70;38.21
63088;BME280;49173;43.164;27.786;2023-08-12T09:11:56;100805.94;;;28.65;38.54
63088;BME280;49173;43.164;27.786;2023-08-12T09:14:22;100819.56;;;28.67;37.51
63088;BME280;49173;43.164;27.786;2023-08-12T09:16:49;100805.66;;;28.75;38.41
63088;BME280;49173;43.164;27.786;2023-08-12T09:19:16;100824.94;;;28.68;36.17
63088;BME280;49173;43.164;27.786;2023-08-12T09:21:53;100815.28;;;28.64;36.34
63088;BME280;49173;43.164;27.786;2023-08-12T09:24:26;100817.09;;;28.72;37.67
63088;BME280;49173;43.164;27.786;2023-08-12T09:26:59;100800.41;;;28.80;38.44
63088;BME280;49173;43.164;27.786;2023-08-12T09:29:35;100800.50;;;28.87;38.03
63088;BME280;49173;43.164;27.786;2023-08-12T09:32:10;100800.22;;;28.96;37.80
63088;BME280;49173;43.164;27.786;2023-08-12T09:34:49;100796.88;;;29.01;37.79
63088;BME280;49173;43.164;27.786;2023-08-12T09:37:18;100794.41;;;29.06;36.09
63088;BME280;49173;43.164;27.786;2023-08-12T09:39:49;100794.28;;;29.14;37.07
63088;BME280;49173;43.164;27.786;2023-08-12T09:42:19;100785.13;;;29.14;36.30
63088;BME280;49173;43.164;27.786;2023-08-12T09:44:46;100787.88;;;29.14;35.63
63088;BME280;49173;43.164;27.786;2023-08-12T09:47:16;100785.44;;;29.04;36.74
63088;BME280;49173;43.164;27.786;2023-08-12T09:49:43;100789.44;;;29.02;36.77
63088;BME280;49173;43.164;27.786;2023-08-12T09:52:10;100792.28;;;29.08;36.74
63088;BME280;49173;43.164;27.786;2023-08-12T09:54:42;100778.16;;;29.18;36.80
63088;BME280;49173;43.164;27.786;2023-08-12T09:57:14;100777.19;;;29.25;38.31
63088;BME280;49173;43.164;27.786;2023-08-12T09:59:47;100779.75;;;29.27;36.98
63088;BME280;49173;43.164;27.786;2023-08-12T10:02:19;100777.72;;;29.36;38.05
63088;BME280;49173;43.164;27.786;2023-08-12T10:04:49;100775.59;;;29.38;36.30
63088;BME280;49173;43.164;27.786;2023-08-12T10:07:20;100779.91;;;29.40;36.55
63088;BME280;49173;43.164;27.786;2023-08-12T10:09:48;100770.47;;;29.35;36.27
63088;BME280;49173;43.164;27.786;2023-08-12T10:12:18;100769.41;;;29.36;36.71
63088;BME280;49173;43.164;27.786;2023-08-12T10:14:45;100767.56;;;29.43;36.93
63088;BME280;49173;43.164;27.786;2023-08-12T10:17:14;100756.41;;;29.51;37.07
63088;BME280;49173;43.164;27.786;2023-08-12T10:19:49;100760.94;;;29.59;37.06
63088;BME280;49173;43.164;27.786;2023-08-12T10:22:21;100762.25;;;29.63;37.01
63088;BME280;49173;43.164;27.786;2023-08-12T10:24:50;100762.25;;;29.63;36.89
63088;BME280;49173;43.164;27.786;2023-08-12T10:27:18;100764.69;;;29.72;36.82
63088;BME280;49173;43.164;27.786;2023-08-12T10:29:46;100771.59;;;29.83;37.02
63088;BME280;49173;43.164;27.786;2023-08-12T10:32:15;100763.72;;;29.87;37.49
63088;BME280;49173;43.164;27.786;2023-08-12T10:34:44;100770.13;;;29.87;37.10
63088;BME280;49173;43.164;27.786;2023-08-12T10:37:17;100769.69;;;29.84;37.25
63088;BME280;49173;43.164;27.786;2023-08-12T10:39:48;100780.34;;;29.87;37.75
63088;BME280;49173;43.164;27.786;2023-08-12T10:42:40;100756.75;;;29.91;37.18
63088;BME280;49173;43.164;27.786;2023-08-12T10:45:14;100761.22;;;29.92;37.39
63088;BME280;49173;43.164;27.786;2023-08-12T10:50:36;100765.47;;;30.16;37.99
63088;BME280;49173;43.164;27.786;2023-08-12T10:53:25;100757.84;;;30.18;38.09
63088;BME280;49173;43.164;27.786;2023-08-12T10:56:00;100750.34;;;30.12;38.10
63088;BME280;49173;43.164;27.786;2023-08-12T11:01:23;100767.94;;;30.04;39.18
63088;BME280;49173;43.164;27.786;2023-08-12T11:03:50;100754.16;;;30.11;38.11
63088;BME280;49173;43.164;27.786;2023-08-12T11:06:19;100761.19;;;30.13;38.98
63088;BME280;49173;43.164;27.786;2023-08-12T11:08:52;100756.13;;;30.17;38.64
63088;BME280;49173;43.164;27.786;2023-08-12T11:11:20;100755.66;;;30.13;38.81
63088;BME280;49173;43.164;27.786;2023-08-12T11:13:59;100756.72;;;30.12;39.34
63088;BME280;49173;43.164;27.786;2023-08-12T11:16:40;100757.44;;;29.99;38.27
63088;BME280;49173;43.164;27.786;2023-08-12T11:19:09;100749.69;;;30.10;38.36
63088;BME280;49173;43.164;27.786;2023-08-12T11:21:36;100746.81;;;30.24;37.92
63088;BME280;49173;43.164;27.786;2023-08-12T11:24:05;100752.78;;;30.28;37.36
63088;BME280;49173;43.164;27.786;2023-08-12T11:26:33;100751.66;;;30.22;36.82
63088;BME280;49173;43.164;27.786;2023-08-12T11:28:59;100753.41;;;30.30;36.95
63088;BME280;49173;43.164;27.786;2023-08-12T11:31:28;100749.16;;;30.27;36.76
63088;BME280;49173;43.164;27.786;2023-08-12T11:33:58;100744.50;;;30.34;36.83
63088;BME280;49173;43.164;27.786;2023-08-12T11:36:26;100745.00;;;30.45;36.49
63088;BME280;49173;43.164;27.786;2023-08-12T11:38:59;100746.28;;;30.49;36.31
63088;BME280;49173;43.164;27.786;2023-08-12T11:41:29;100755.53;;;30.62;36.51
63088;BME280;49173;43.164;27.786;2023-08-12T11:43:56;100750.19;;;30.61;36.62
63088;BME280;49173;43.164;27.786;2023-08-12T11:46:22;100748.88;;;30.57;36.40
63088;BME280;49173;43.164;27.786;2023-08-12T11:48:50;100744.84;;;30.53;36.47
63088;BME280;49173;43.164;27.786;2023-08-12T11:51:17;100757.63;;;30.54;37.13
63088;BME280;49173;43.164;27.786;2023-08-12T11:53:46;100737.25;;;30.68;36.23
63088;BME280;49173;43.164;27.786;2023-08-12T11:56:17;100735.03;;;30.57;36.05
63088;BME280;49173;43.164;27.786;2023-08-12T11:58:48;100743.72;;;30.47;35.42
63088;BME280;49173;43.164;27.786;2023-08-12T12:01:16;100732.75;;;30.26;35.73
63088;BME280;49173;43.164;27.786;2023-08-12T12:03:56;100740.69;;;30.35;34.97
63088;BME280;49173;43.164;27.786;2023-08-12T12:06:37;100740.31;;;30.45;34.98
63088;BME280;49173;43.164;27.786;2023-08-12T12:09:08;100735.81;;;30.44;35.10
63088;BME280;49173;43.164;27.786;2023-08-12T12:11:41;100742.88;;;30.47;34.25
63088;BME280;49173;43.164;27.786;2023-08-12T12:14:12;100739.25;;;30.46;35.61
63088;BME280;49173;43.164;27.786;2023-08-12T12:16:43;100735.22;;;30.49;35.03
63088;BME280;49173;43.164;27.786;2023-08-12T12:19:20;100745.00;;;30.51;34.83
63088;BME280;49173;43.164;27.786;2023-08-12T12:21:49;100740.78;;;30.55;34.43
63088;BME280;49173;43.164;27.786;2023-08-12T12:24:16;100742.53;;;30.63;33.56
63088;BME280;49173;43.164;27.786;2023-08-12T12:26:50;100737.50;;;30.73;32.31
63088;BME280;49173;43.164;27.786;2023-08-12T12:29:17;100738.97;;;30.69;32.43
63088;BME280;49173;43.164;27.786;2023-08-12T12:31:43;100734.81;;;30.52;32.95
63088;BME280;49173;43.164;27.786;2023-08-12T12:34:21;100736.47;;;30.46;32.41
63088;BME280;49173;43.164;27.786;2023-08-12T12:36:51;100724.78;;;30.57;32.90
63088;BME280;49173;43.164;27.786;2023-08-12T12:39:23;100731.53;;;30.76;34.13
63088;BME280;49173;43.164;27.786;2023-08-12T12:41:52;100734.75;;;30.86;34.47
63088;BME280;49173;43.164;27.786;2023-08-12T12:44:23;100724.53;;;30.80;33.65
63088;BME280;49173;43.164;27.786;2023-08-12T12:46:55;100731.94;;;30.80;34.19
63088;BME280;49173;43.164;27.786;2023-08-12T12:49:32;100728.16;;;30.81;33.58
63088;BME280;49173;43.164;27.786;2023-08-12T12:52:04;100726.44;;;30.86;33.81
63088;BME280;49173;43.164;27.786;2023-08-12T12:54:36;100728.19;;;31.07;33.92
63088;BME280;49173;43.164;27.786;2023-08-12T12:57:08;100730.31;;;30.99;33.08